Aérodrome :
LOGIN :

S'inscrire | Disclaimer

   EN    FR    IT 

 










Légende :    VFR   VFR Marginal   IFR   IFR Intensif   IFR Très Intensif
Visi : 
Plafond : 
>= 8 km
>= 3000ft
5 à 8 km
1000 à 3000 ft
1500m à 5 km
500 à 1000 ft
800 à 1500m
200 à 500 ft
< 800m
< 200 ft
Symboles :   Orages  Brouillard  Fortes neiges  Fortes précipitations  Vent > 20 kt
SIGMETs :   Divers  Orages  Givrage  Turbulence  Onde Orograph.  Cendres Volcan.






- Altitude de l'aérodrome : 82 ft
- Code IATA : QIE


LFMI - Istres

DERNIER METAR :
  • 311530Z AUTO 20007KT CAVOK 17/13 Q1023 NOSIG

METARs EXPIRÉS :
  • 311500Z AUTO 19007KT 9999 FEW016 18/13 Q1023 NOSIG
  • 311430Z AUTO 21005KT 180V240 9999 FEW018 19/13 Q1023 NOSIG
  • 311400Z AUTO 22005KT 9999 SCT018 19/13 Q1023 BECMG BKN014
  • 311330Z AUTO 18003KT 130V240 9999 BKN018 19/14 Q1023 BECMG BKN014
  • 311300Z AUTO 15005KT 110V180 9999 BKN018 18/13 Q1024 BECMG BKN014

TAF TAF LFMI
Valide du 31 à 15h jusqu'au 01 à 15h UTC


311400Z 3115/0115 VRB05KT 9999 BKN015 TX18/3115Z TN12/0107Z
TEMPO 3115/3116 SCT020
TEMPO 3121/0108 3000 BR OVC008
PROB30
TEMPO 0100/0107 0800 FG VV///
TEMPO 0112/0115 NSC



MET'MAP, la Météo Aéronautique d'un coup d'oeil ! - Copyright ORBIFLY Décembre 2007 - Disclaimer

ORBIFLY MET'MAP TEAM :

Programmation & Développement : Alexandra Zaïnal
Sur une idée originale de : Baudouin d'Aumeries
Assistance à la programmation : Marc-Olivier Méhu
Soutien technique & logistique : Manuel Goepfert

Contact : metmap@orbifly.com




SOURCES & CREDITS :

   NOAA